createdAt,value
2017-10-19T00:00:53.817Z,101459.76
2017-10-19T00:03:20.014Z,101457.16
2017-10-19T00:05:46.627Z,101461.95
2017-10-19T00:08:12.889Z,101466.73
2017-10-19T00:10:39.098Z,101461.54
2017-10-19T00:13:05.446Z,101460.63
2017-10-19T00:15:31.883Z,101467.64
2017-10-19T00:17:58.297Z,101472.44
2017-10-19T00:20:24.630Z,101469.84
2017-10-19T00:22:51.056Z,101469.02
2017-10-19T00:25:17.263Z,101468.96
2017-10-19T00:27:43.833Z,101474.24
2017-10-19T00:30:10.290Z,101476.88
2017-10-19T00:32:36.721Z,101479.53
2017-10-19T00:35:02.982Z,101481.25
2017-10-19T00:37:29.417Z,101473.31
2017-10-19T00:39:55.593Z,101467.09
2017-10-19T00:42:22.012Z,101467.05
2017-10-19T00:44:48.211Z,101464.80
2017-10-19T00:47:14.412Z,101466.47
2017-10-19T00:49:40.892Z,101459.44
2017-10-19T00:52:07.091Z,101457.66
2017-10-19T00:54:33.304Z,101456.75
2017-10-19T00:56:59.555Z,101462.94
2017-10-19T00:59:25.765Z,101462.03
2017-10-19T01:01:52.086Z,101456.34
2017-10-19T01:04:18.314Z,101455.48
2017-10-19T01:06:44.517Z,101457.24
2017-10-19T01:09:11.116Z,101457.66
2017-10-19T01:11:37.321Z,101463.79
2017-10-19T01:14:03.527Z,101460.28
2017-10-19T01:16:30.206Z,101457.66
2017-10-19T01:18:56.645Z,101448.91
2017-10-19T01:21:22.850Z,101454.58
2017-10-19T01:23:49.357Z,101455.05
2017-10-19T01:26:15.553Z,101449.84
2017-10-19T01:28:41.754Z,101454.25
2017-10-19T01:31:08.304Z,101446.36
2017-10-19T01:33:34.555Z,101448.94
2017-10-19T01:36:00.792Z,101446.75
2017-10-19T01:38:27.313Z,101451.10
2017-10-19T01:40:53.765Z,101446.77
2017-10-19T01:43:20.138Z,101444.61
2017-10-19T01:45:46.388Z,101443.30
2017-10-19T01:48:12.620Z,101443.30
2017-10-19T01:50:39.298Z,101446.42
2017-10-19T01:53:05.496Z,101450.39
2017-10-19T01:55:31.958Z,101449.95
2017-10-19T01:57:58.600Z,101451.67
2017-10-19T02:00:24.890Z,101461.79
2017-10-19T02:02:51.332Z,101459.95
2017-10-19T02:05:17.601Z,101455.19
2017-10-19T02:07:43.809Z,101454.39
2017-10-19T02:10:10.009Z,101455.62
2017-10-19T02:12:36.638Z,101456.48
2017-10-19T02:15:02.868Z,101455.65
2017-10-19T02:17:29.094Z,101457.41
2017-10-19T02:19:55.827Z,101460.50
2017-10-19T02:22:22.031Z,101458.69
2017-10-19T02:24:48.335Z,101461.32
2017-10-19T02:27:14.605Z,101454.36
2017-10-19T02:29:41.038Z,101464.94
2017-10-19T02:32:07.275Z,101466.30
2017-10-19T02:34:33.527Z,101459.73
2017-10-19T02:36:59.742Z,101458.28
2017-10-19T02:39:25.931Z,101457.32
2017-10-19T02:41:52.283Z,101458.61
2017-10-19T02:44:18.491Z,101452.42
2017-10-19T02:46:44.738Z,101447.59
2017-10-19T02:49:11.314Z,101445.93
2017-10-19T02:51:37.516Z,101447.30
2017-10-19T02:54:03.954Z,101448.14
2017-10-19T02:56:30.326Z,101441.92
2017-10-19T02:58:56.770Z,101448.11
2017-10-19T03:01:22.967Z,101447.73
2017-10-19T03:03:50.243Z,101442.53
2017-10-19T03:06:16.456Z,101442.53
2017-10-19T03:08:42.893Z,101443.41
2017-10-19T03:11:09.590Z,101448.64
2017-10-19T03:13:35.800Z,101440.31
2017-10-19T03:16:01.994Z,101450.39
2017-10-19T03:18:28.937Z,101445.16
2017-10-19T03:20:55.151Z,101445.19
2017-10-19T03:23:21.704Z,101441.65
2017-10-19T03:25:47.989Z,101436.91
2017-10-19T03:28:14.210Z,101436.83
2017-10-19T03:30:40.425Z,101428.47
2017-10-19T03:33:06.973Z,101426.77
2017-10-19T03:35:33.207Z,101429.11
2017-10-19T03:37:59.414Z,101425.62
2017-10-19T03:40:25.688Z,101422.15
2017-10-19T03:42:51.905Z,101433.02
2017-10-19T03:45:18.128Z,101436.94
2017-10-19T03:47:44.651Z,101431.24
2017-10-19T03:50:10.868Z,101433.19
2017-10-19T03:52:37.306Z,101438.03
2017-10-19T03:55:03.793Z,101433.33
2017-10-19T03:57:30.207Z,101433.00
2017-10-19T03:59:56.428Z,101429.08
2017-10-19T04:02:22.681Z,101431.30
2017-10-19T04:04:48.883Z,101431.33
2017-10-19T04:07:15.075Z,101426.97
2017-10-19T04:09:41.339Z,101425.24
2017-10-19T04:12:07.538Z,101420.91
2017-10-19T04:14:33.726Z,101420.50
2017-10-19T04:17:00.261Z,101407.38
2017-10-19T04:19:26.454Z,101400.31
2017-10-19T04:21:52.917Z,101398.98
2017-10-19T04:24:19.498Z,101400.73
2017-10-19T04:26:45.699Z,101399.86
2017-10-19T04:29:12.155Z,101402.45
2017-10-19T04:31:38.707Z,101398.95
2017-10-19T04:34:04.919Z,101393.69
2017-10-19T04:36:31.127Z,101390.68
2017-10-19T04:38:57.375Z,101388.95
2017-10-19T04:41:23.575Z,101388.88
2017-10-19T04:43:49.818Z,101397.20
2017-10-19T04:46:16.211Z,101391.97
2017-10-19T04:48:42.399Z,101391.06
2017-10-19T04:51:08.850Z,101394.53
2017-10-19T04:53:35.108Z,101391.97
2017-10-19T04:56:01.567Z,101390.27
2017-10-19T04:58:27.781Z,101398.18
2017-10-19T05:00:54.358Z,101395.99
2017-10-19T05:03:20.555Z,101396.42
2017-10-19T05:05:47.068Z,101396.02
2017-10-19T05:08:13.294Z,101399.50
2017-10-19T05:10:39.557Z,101395.98
2017-10-19T05:13:05.756Z,101402.13
2017-10-19T05:15:31.953Z,101403.44
2017-10-19T05:17:58.517Z,101406.50
2017-10-19T05:20:24.722Z,101408.23
2017-10-19T05:22:50.908Z,101406.42
2017-10-19T05:25:17.899Z,101407.69
2017-10-19T05:27:44.093Z,101403.69
2017-10-19T05:30:10.626Z,101401.84
2017-10-19T05:32:37.168Z,101399.16
2017-10-19T05:35:03.371Z,101395.16
2017-10-19T05:37:29.571Z,101389.94
2017-10-19T05:39:55.848Z,101383.00
2017-10-19T05:42:22.286Z,101382.63
2017-10-19T05:44:48.515Z,101390.55
2017-10-19T05:47:15.035Z,101391.03
2017-10-19T05:49:41.239Z,101385.31
2017-10-19T05:52:07.549Z,101380.02
2017-10-19T05:54:34.128Z,101380.81
2017-10-19T05:57:00.486Z,101381.69
2017-10-19T05:59:26.668Z,101380.41
2017-10-19T06:01:52.931Z,101379.09
2017-10-19T06:04:19.319Z,101383.00
2017-10-19T06:06:45.525Z,101388.70
2017-10-19T06:09:11.927Z,101392.23
2017-10-19T06:11:38.133Z,101397.91
2017-10-19T06:14:04.340Z,101392.23
2017-10-19T06:16:31.019Z,101395.22
2017-10-19T06:18:57.217Z,101400.89
2017-10-19T06:21:23.669Z,101404.42
2017-10-19T06:23:50.319Z,101410.13
2017-10-19T06:26:16.776Z,101407.52
2017-10-19T06:28:43.338Z,101409.27
2017-10-19T06:31:09.605Z,101404.89
2017-10-19T06:33:35.850Z,101409.71
2017-10-19T06:36:02.101Z,101404.07
2017-10-19T06:38:28.708Z,101396.65
2017-10-19T06:40:54.928Z,101403.63
2017-10-19T06:43:21.116Z,101398.38
2017-10-19T06:45:47.689Z,101402.75
2017-10-19T06:48:13.899Z,101401.91
2017-10-19T06:50:40.110Z,101401.91
2017-10-19T06:53:06.338Z,101398.38
2017-10-19T06:55:32.522Z,101398.43
2017-10-19T06:57:58.901Z,101408.95
2017-10-19T07:00:25.575Z,101407.20
2017-10-19T07:02:51.810Z,101406.32
2017-10-19T07:05:18.068Z,101411.58
2017-10-19T07:07:44.617Z,101419.91
2017-10-19T07:10:10.835Z,101417.70
2017-10-19T07:12:37.068Z,101415.92
2017-10-19T07:15:03.418Z,101415.90
2017-10-19T07:17:29.658Z,101417.22
2017-10-19T07:19:56.160Z,101417.66
2017-10-19T07:22:22.681Z,101421.16
2017-10-19T07:24:48.881Z,101425.10
2017-10-19T07:27:15.081Z,101426.83
2017-10-19T07:29:41.413Z,101428.56
2017-10-19T07:32:07.902Z,101431.19
2017-10-19T07:34:34.114Z,101427.22
2017-10-19T07:37:00.400Z,101435.98
2017-10-19T07:39:26.840Z,101438.55
2017-10-19T07:41:53.323Z,101428.91
2017-10-19T07:44:19.800Z,101430.64
2017-10-19T07:46:45.997Z,101429.33
2017-10-19T07:49:12.276Z,101422.72
2017-10-19T07:51:38.485Z,101421.41
2017-10-19T07:54:04.718Z,101421.84
2017-10-19T07:56:31.398Z,101423.13
2017-10-19T07:58:57.617Z,101424.42
2017-10-19T08:01:24.002Z,101432.72
2017-10-19T08:03:50.339Z,101431.84
2017-10-19T08:06:16.533Z,101433.10
2017-10-19T08:08:42.734Z,101437.08
2017-10-19T08:11:09.001Z,101431.78
2017-10-19T08:13:35.220Z,101438.36
2017-10-19T08:16:01.418Z,101436.61
2017-10-19T08:18:28.054Z,101447.13
2017-10-19T08:20:54.284Z,101449.32
2017-10-19T08:23:20.491Z,101446.69
2017-10-19T08:25:46.737Z,101444.97
2017-10-19T08:28:12.968Z,101438.39
2017-10-19T08:30:39.184Z,101441.45
2017-10-19T08:33:05.696Z,101439.27
2017-10-19T08:35:31.930Z,101435.78
2017-10-19T08:37:58.150Z,101433.13
2017-10-19T08:40:24.489Z,101430.91
2017-10-19T08:42:50.707Z,101432.22
2017-10-19T08:45:16.920Z,101429.19
2017-10-19T08:47:43.528Z,101427.98
2017-10-19T08:50:09.976Z,101433.22
2017-10-19T08:52:36.197Z,101439.32
2017-10-19T08:55:07.680Z,101445.45
2017-10-19T08:57:33.875Z,101443.70
2017-10-19T09:00:00.097Z,101443.27
2017-10-19T09:02:26.630Z,101445.45
2017-10-19T09:04:52.849Z,101437.08
2017-10-19T09:07:19.097Z,101429.98
2017-10-19T09:09:45.365Z,101427.78
2017-10-19T09:12:11.839Z,101428.25
2017-10-19T09:14:38.300Z,101420.30
2017-10-19T09:17:04.808Z,101415.89
2017-10-19T09:19:30.997Z,101409.61
2017-10-19T09:21:57.190Z,101417.01
2017-10-19T09:24:23.529Z,101420.02
2017-10-19T09:26:49.739Z,101411.19
2017-10-19T09:29:15.976Z,101406.75
2017-10-19T09:31:42.598Z,101400.08
2017-10-19T09:34:08.800Z,101393.03
2017-10-19T09:36:34.991Z,101389.96
2017-10-19T09:39:01.330Z,101395.16
2017-10-19T09:41:27.540Z,101382.34
2017-10-19T09:43:53.833Z,101381.44
2017-10-19T09:46:20.113Z,101386.67
2017-10-19T09:48:46.342Z,101387.55
2017-10-19T09:51:12.530Z,101387.93
2017-10-19T09:53:39.002Z,101385.70
2017-10-19T09:56:05.194Z,101397.45
2017-10-19T09:58:31.415Z,101398.80
2017-10-19T10:00:57.919Z,101400.50
2017-10-19T10:03:24.290Z,101400.53
2017-10-19T10:05:50.560Z,101402.25
2017-10-19T10:08:17.578Z,101406.52
2017-10-19T10:10:43.780Z,101411.25
2017-10-19T10:13:09.979Z,101413.78
2017-10-19T10:15:36.249Z,101412.72
2017-10-19T10:18:02.573Z,101416.47
2017-10-19T10:20:28.780Z,101416.44
2017-10-19T10:22:55.061Z,101418.06
2017-10-19T10:25:21.264Z,101418.41
2017-10-19T10:27:47.484Z,101415.30
2017-10-19T10:30:13.810Z,101412.16
2017-10-19T10:32:40.015Z,101419.90
2017-10-19T10:35:06.502Z,101421.05
2017-10-19T10:39:58.752Z,101412.97
2017-10-19T10:42:25.248Z,101413.71
2017-10-19T10:44:51.432Z,101418.41
2017-10-19T10:47:17.617Z,101414.01
2017-10-19T10:49:44.109Z,101409.18
2017-10-19T10:52:10.541Z,101408.30
2017-10-19T10:54:36.755Z,101401.61
2017-10-19T10:57:03.115Z,101393.26
2017-10-19T10:59:29.628Z,101395.86
2017-10-19T11:01:55.905Z,101394.03
2017-10-19T11:04:22.519Z,101394.88
2017-10-19T11:06:48.690Z,101401.42
2017-10-19T11:09:15.142Z,101396.89
2017-10-19T11:11:41.374Z,101392.83
2017-10-19T11:14:07.550Z,101385.80
2017-10-19T11:16:33.737Z,101388.73
2017-10-19T11:18:59.962Z,101380.67
2017-10-19T11:21:26.389Z,101381.88
2017-10-19T11:23:52.645Z,101381.83
2017-10-19T11:26:18.850Z,101387.15
2017-10-19T11:28:45.031Z,101387.22
2017-10-19T11:31:11.569Z,101389.53
2017-10-19T11:33:37.753Z,101387.88
2017-10-19T11:36:03.933Z,101380.86
2017-10-19T11:38:30.766Z,101382.61
2017-10-19T11:40:56.953Z,101375.98
2017-10-19T11:43:23.152Z,101372.87
2017-10-19T11:45:49.817Z,101373.23
2017-10-19T11:48:15.999Z,101370.96
2017-10-19T11:50:42.191Z,101369.64
2017-10-19T11:53:08.754Z,101368.69
2017-10-19T11:55:34.950Z,101369.86
2017-10-19T11:58:03.007Z,101371.83
2017-10-19T12:00:29.914Z,101377.27
2017-10-19T12:02:56.708Z,101370.04
2017-10-19T12:05:22.963Z,101373.40
2017-10-19T12:07:49.194Z,101372.52
2017-10-19T12:10:15.645Z,101368.13
2017-10-19T12:12:41.836Z,101354.97
2017-10-19T12:15:08.403Z,101344.90
2017-10-19T12:17:34.603Z,101351.85
2017-10-19T12:20:01.491Z,101348.78
2017-10-19T12:22:27.745Z,101343.50
2017-10-19T12:24:53.942Z,101349.61
2017-10-19T12:27:20.120Z,101348.38
2017-10-19T12:29:46.462Z,101350.66
2017-10-19T12:32:12.858Z,101348.94
2017-10-19T12:34:39.097Z,101345.90
2017-10-19T12:37:05.758Z,101348.17
2017-10-19T12:39:31.947Z,101342.90
2017-10-19T12:41:58.372Z,101340.74
2017-10-19T12:44:24.924Z,101334.14
2017-10-19T12:46:51.099Z,101330.99
2017-10-19T12:49:17.292Z,101339.34
2017-10-19T12:51:43.926Z,101330.99
2017-10-19T12:54:10.138Z,101330.03
2017-10-19T12:56:36.336Z,101324.28
2017-10-19T12:59:02.923Z,101318.56
2017-10-19T13:01:29.115Z,101316.36
2017-10-19T13:03:55.416Z,101316.33
2017-10-19T13:06:21.750Z,101301.37
2017-10-19T13:08:47.970Z,101292.14
2017-10-19T13:11:14.401Z,101301.73
2017-10-19T13:13:40.665Z,101295.61
2017-10-19T13:16:06.895Z,101297.38
2017-10-19T13:18:33.614Z,101294.77
2017-10-19T13:21:00.153Z,101292.62
2017-10-19T13:23:26.322Z,101292.14
2017-10-19T13:25:52.877Z,101290.86
2017-10-19T13:28:19.090Z,101287.39
2017-10-19T13:30:45.298Z,101283.03
2017-10-19T13:33:11.557Z,101276.92
2017-10-19T13:35:37.764Z,101273.44
2017-10-19T13:38:03.944Z,101278.76
2017-10-19T13:40:30.220Z,101279.72
2017-10-19T13:42:56.412Z,101270.92
2017-10-19T13:45:22.605Z,101276.24
2017-10-19T13:47:49.169Z,101275.88
2017-10-19T13:50:15.390Z,101273.24
2017-10-19T13:52:41.583Z,101272.02
2017-10-19T13:55:07.883Z,101275.09
2017-10-19T13:57:34.075Z,101271.17
2017-10-19T14:00:00.252Z,101269.05
2017-10-19T14:02:26.861Z,101280.08
2017-10-19T14:04:53.168Z,101273.13
2017-10-19T14:07:19.352Z,101270.61
2017-10-19T14:09:45.907Z,101271.09
2017-10-19T14:12:12.103Z,101256.63
2017-10-19T14:14:38.269Z,101261.51
2017-10-19T14:17:04.961Z,101288.43
2017-10-19T14:19:31.141Z,101266.45
2017-10-19T14:21:57.347Z,101266.45
2017-10-19T14:24:23.581Z,101262.62
2017-10-19T14:26:49.980Z,101259.19
2017-10-19T14:29:16.146Z,101255.75
2017-10-19T14:31:42.394Z,101259.34
2017-10-19T14:34:08.595Z,101258.98
2017-10-19T14:36:34.778Z,101249.44
2017-10-19T14:39:01.046Z,101249.95
2017-10-19T14:41:27.257Z,101248.27
2017-10-19T14:43:53.447Z,101255.34
2017-10-19T14:46:20.010Z,101247.91
2017-10-19T14:48:46.221Z,101247.48
2017-10-19T14:51:12.635Z,101239.17
2017-10-19T14:53:39.625Z,101239.65
2017-10-19T14:56:05.806Z,101240.56
2017-10-19T14:58:32.256Z,101235.34
2017-10-19T15:00:58.578Z,101237.13
2017-10-19T15:03:24.790Z,101244.19
2017-10-19T15:05:51.202Z,101239.84
2017-10-19T15:10:43.695Z,101233.37
2017-10-19T15:13:09.876Z,101221.52
2017-10-19T15:15:36.541Z,101228.58
2017-10-19T15:18:02.769Z,101235.64
2017-10-19T15:20:29.145Z,101237.91
2017-10-19T15:22:55.780Z,101230.05
2017-10-19T15:25:22.054Z,101228.77
2017-10-19T15:27:48.262Z,101230.09
2017-10-19T15:30:14.897Z,101218.27
2017-10-19T15:32:41.109Z,101220.50
2017-10-19T15:35:07.311Z,101220.94
2017-10-19T15:37:33.942Z,101220.58
2017-10-19T15:40:00.165Z,101212.27
2017-10-19T15:42:26.376Z,101208.44
2017-10-19T15:44:52.885Z,101211.91
2017-10-19T15:47:19.333Z,101206.31
2017-10-19T15:49:45.682Z,101209.42
2017-10-19T15:52:12.345Z,101207.30
2017-10-19T15:54:38.923Z,101210.85
2017-10-19T15:57:05.518Z,101211.80
2017-10-19T15:59:32.489Z,101203.98
2017-10-19T16:01:58.947Z,101205.34
2017-10-19T16:04:25.585Z,101205.41
2017-10-19T16:06:52.322Z,101210.27
2017-10-19T16:09:18.523Z,101208.99
2017-10-19T16:11:45.126Z,101203.36
2017-10-19T16:14:11.382Z,101201.72
2017-10-19T16:16:37.600Z,101202.16
2017-10-19T16:19:03.805Z,101198.68
2017-10-19T16:21:30.352Z,101209.65
2017-10-19T16:23:56.586Z,101208.44
2017-10-19T16:26:22.787Z,101209.31
2017-10-19T16:28:49.117Z,101207.16
2017-10-19T16:31:15.367Z,101207.67
2017-10-19T16:33:41.838Z,101211.22
2017-10-19T16:36:08.457Z,101210.81
2017-10-19T16:38:34.657Z,101203.36
2017-10-19T16:41:00.829Z,101206.02
2017-10-19T16:43:27.641Z,101202.14
2017-10-19T16:45:53.822Z,101211.36
2017-10-19T16:48:20.048Z,101217.94
2017-10-19T16:50:46.839Z,101217.53
2017-10-19T16:53:13.046Z,101221.05
2017-10-19T16:55:39.266Z,101224.11
2017-10-19T16:58:05.888Z,101225.47
2017-10-19T17:00:32.073Z,101221.98
2017-10-19T17:02:58.322Z,101217.64
2017-10-19T17:05:24.867Z,101221.22
2017-10-19T17:07:51.080Z,101221.62
2017-10-19T17:10:17.302Z,101218.59
2017-10-19T17:12:43.734Z,101215.15
2017-10-19T17:15:09.962Z,101214.13
2017-10-19T17:17:36.245Z,101218.45
2017-10-19T17:20:02.543Z,101216.73
2017-10-19T17:22:28.744Z,101219.43
2017-10-19T17:24:54.997Z,101215.92
2017-10-19T17:27:21.541Z,101216.80
2017-10-19T17:29:47.773Z,101218.55
2017-10-19T17:32:14.016Z,101210.69
2017-10-19T17:34:40.899Z,101208.53
2017-10-19T17:37:07.338Z,101208.53
2017-10-19T17:39:33.570Z,101203.30
2017-10-19T17:41:59.909Z,101205.56
2017-10-19T17:44:26.143Z,101207.76
2017-10-19T17:46:52.635Z,101209.04
2017-10-19T17:49:19.055Z,101210.28
2017-10-19T17:51:45.654Z,101215.11
2017-10-19T17:54:11.870Z,101204.25
2017-10-19T17:56:38.077Z,101200.77
2017-10-19T17:59:04.852Z,101208.23
2017-10-19T18:01:31.072Z,101213.09
2017-10-19T18:03:57.291Z,101207.90
2017-10-19T18:06:23.951Z,101211.00
2017-10-19T18:08:50.159Z,101204.39
2017-10-19T18:11:16.635Z,101204.28
2017-10-19T18:13:42.919Z,101203.84
2017-10-19T18:16:09.106Z,101200.77
2017-10-19T18:18:35.494Z,101198.11
2017-10-19T18:21:01.720Z,101194.53
2017-10-19T18:23:27.918Z,101205.12
2017-10-19T18:25:54.234Z,101198.98
2017-10-19T18:28:20.446Z,101194.64
2017-10-19T18:30:46.664Z,101190.76
2017-10-19T18:33:13.277Z,101197.34
2017-10-19T18:35:39.753Z,101200.84
2017-10-19T18:38:05.946Z,101199.13
2017-10-19T18:40:32.517Z,101200.38
2017-10-19T18:42:58.779Z,101195.92
2017-10-19T18:45:24.979Z,101194.20
2017-10-19T18:47:51.662Z,101189.81
2017-10-19T18:50:17.843Z,101196.72
2017-10-19T18:52:44.082Z,101197.13
2017-10-19T18:55:10.754Z,101192.81
2017-10-19T18:57:36.954Z,101191.56
2017-10-19T19:00:03.388Z,101192.01
2017-10-19T19:02:29.624Z,101196.86
2017-10-19T19:04:55.977Z,101190.69
2017-10-19T19:07:22.196Z,101193.72
2017-10-19T19:09:48.418Z,101183.20
2017-10-19T19:12:15.077Z,101197.73
2017-10-19T19:14:41.446Z,101204.76
2017-10-19T19:17:07.876Z,101199.46
2017-10-19T19:19:34.131Z,101199.36
2017-10-19T19:22:00.361Z,101196.39
2017-10-19T19:24:26.588Z,101203.88
2017-10-19T19:26:52.860Z,101208.33
2017-10-19T19:29:19.283Z,101204.52
2017-10-19T19:31:45.732Z,101202.84
2017-10-19T19:34:12.050Z,101198.89
2017-10-19T19:36:38.275Z,101193.19
2017-10-19T19:39:04.864Z,101188.73
2017-10-19T19:41:31.398Z,101189.55
2017-10-19T19:43:57.590Z,101186.11
2017-10-19T19:46:23.800Z,101190.39
2017-10-19T19:48:50.134Z,101199.53
2017-10-19T19:51:16.337Z,101199.90
2017-10-19T19:53:42.547Z,101190.25
2017-10-19T19:56:09.483Z,101192.44
2017-10-19T19:58:35.697Z,101191.56
2017-10-19T20:01:02.120Z,101193.32
2017-10-19T20:03:28.729Z,101184.14
2017-10-19T20:05:55.161Z,101192.04
2017-10-19T20:08:21.367Z,101192.08
2017-10-19T20:10:47.592Z,101189.91
2017-10-19T20:13:14.392Z,101193.42
2017-10-19T20:15:40.782Z,101194.73
2017-10-19T20:18:07.227Z,101201.39
2017-10-19T20:20:33.865Z,101196.97
2017-10-19T20:23:00.110Z,101197.41
2017-10-19T20:25:26.346Z,101193.94
2017-10-19T20:27:52.949Z,101201.79
2017-10-19T20:30:19.144Z,101200.95
2017-10-19T20:32:45.361Z,101203.58
2017-10-19T20:35:11.931Z,101201.83
2017-10-19T20:37:38.123Z,101201.89
2017-10-19T20:40:04.327Z,101197.58
2017-10-19T20:42:30.690Z,101203.31
2017-10-19T20:44:56.911Z,101203.75
2017-10-19T20:47:23.162Z,101204.70
2017-10-19T20:49:49.935Z,101198.48
2017-10-19T20:52:16.171Z,101205.77
2017-10-19T20:54:42.369Z,101206.55
2017-10-19T20:57:08.726Z,101208.27
2017-10-19T20:59:35.008Z,101202.53
2017-10-19T21:02:01.215Z,101210.39
2017-10-19T21:04:27.730Z,101199.02
2017-10-19T21:06:54.194Z,101193.77
2017-10-19T21:09:20.427Z,101187.62
2017-10-19T21:11:46.667Z,101190.25
2017-10-19T21:14:12.884Z,101183.70
2017-10-19T21:16:39.434Z,101180.64
2017-10-19T21:19:05.662Z,101174.09
2017-10-19T21:21:32.096Z,101178.95
2017-10-19T21:23:58.446Z,101175.01
2017-10-19T21:26:24.657Z,101177.27
2017-10-19T21:28:50.867Z,101175.48
2017-10-19T21:31:17.133Z,101180.27
2017-10-19T21:33:43.396Z,101170.15
2017-10-19T21:36:09.802Z,101172.78
2017-10-19T21:38:36.149Z,101160.06
2017-10-19T21:41:02.347Z,101157.91
2017-10-19T21:43:28.538Z,101167.95
2017-10-19T21:45:55.230Z,101162.33
2017-10-19T21:48:21.464Z,101157.53
2017-10-19T21:50:47.673Z,101160.64
2017-10-19T21:53:13.930Z,101157.53
2017-10-19T21:55:40.120Z,101159.22
2017-10-19T21:58:06.319Z,101154.33
2017-10-19T22:00:32.848Z,101156.48
2017-10-19T22:02:59.078Z,101157.03
2017-10-19T22:05:25.603Z,101155.67
2017-10-19T22:07:52.266Z,101152.23
2017-10-19T22:10:18.534Z,101146.50
2017-10-19T22:12:44.745Z,101141.67
2017-10-19T22:15:11.285Z,101133.75
2017-10-19T22:17:37.982Z,101126.25
2017-10-19T22:20:04.211Z,101124.50
2017-10-19T22:22:30.847Z,101125.45
2017-10-19T22:24:57.073Z,101135.24
2017-10-19T22:27:23.267Z,101135.38
2017-10-19T22:29:49.597Z,101123.61
2017-10-19T22:32:15.797Z,101122.34
2017-10-19T22:34:42.005Z,101124.59
2017-10-19T22:37:09.038Z,101127.20
2017-10-19T22:39:35.233Z,101125.03
2017-10-19T22:42:01.443Z,101122.91
2017-10-19T22:44:27.718Z,101120.28
2017-10-19T22:46:54.153Z,101119.88
2017-10-19T22:49:20.380Z,101127.77
2017-10-19T22:51:46.968Z,101129.09
2017-10-19T22:54:13.174Z,101129.13
2017-10-19T22:56:39.384Z,101134.34
2017-10-19T22:59:05.730Z,101124.59
2017-10-19T23:01:31.921Z,101117.58
2017-10-19T23:03:58.346Z,101114.52
2017-10-19T23:06:24.930Z,101114.55
2017-10-19T23:08:51.137Z,101103.19
2017-10-19T23:11:17.356Z,101108.48
2017-10-19T23:13:43.710Z,101113.30
2017-10-19T23:16:09.921Z,101119.48
2017-10-19T23:18:36.568Z,101114.58
2017-10-19T23:21:02.819Z,101114.98
2017-10-19T23:23:29.059Z,101117.61
2017-10-19T23:25:56.195Z,101124.59
2017-10-19T23:28:22.394Z,101131.64
2017-10-19T23:30:48.603Z,101126.42
2017-10-19T23:33:15.708Z,101124.70
2017-10-19T23:35:41.909Z,101135.22
2017-10-19T23:38:08.116Z,101128.21
2017-10-19T23:40:34.797Z,101125.17
2017-10-19T23:43:01.006Z,101125.65
2017-10-19T23:45:27.234Z,101136.09
2017-10-19T23:47:53.502Z,101133.91
2017-10-19T23:50:19.707Z,101139.58
2017-10-19T23:52:45.884Z,101132.02
2017-10-19T23:55:12.223Z,101130.77
2017-10-19T23:57:38.660Z,101134.38
